createdAt,value
2023-04-17T04:16:45.900Z,33.00
2023-04-17T04:22:50.017Z,39.00
2023-04-17T04:28:54.700Z,38.00
2023-04-17T04:35:26.182Z,34.50
2023-04-17T04:41:30.265Z,25.25
2023-04-17T04:47:33.286Z,26.50
2023-04-17T04:53:36.286Z,23.75
2023-04-17T04:59:39.133Z,27.75
2023-04-17T05:06:02.593Z,28.75
2023-04-17T05:12:13.080Z,30.00
2023-04-17T05:18:16.144Z,24.25
2023-04-17T05:24:19.526Z,27.00
2023-04-17T05:30:24.816Z,26.00
2023-04-17T05:36:37.100Z,28.50
2023-04-17T05:42:42.739Z,29.00
2023-04-17T05:48:45.800Z,30.25
2023-04-17T05:54:49.581Z,31.75
2023-04-17T06:00:56.350Z,31.50
2023-04-17T06:06:59.711Z,29.25
2023-04-17T06:13:03.240Z,28.00
2023-04-17T06:19:07.595Z,34.75
2023-04-17T06:25:10.735Z,34.50
2023-04-17T06:31:13.578Z,28.50
2023-04-17T06:37:16.776Z,32.25
2023-04-17T06:43:19.629Z,26.75
2023-04-17T06:49:23.456Z,26.50
2023-04-17T06:55:27.184Z,29.75
2023-04-17T07:01:31.686Z,28.50
2023-04-17T07:07:36.757Z,25.50
2023-04-17T07:13:39.002Z,25.00
2023-04-17T07:19:41.558Z,16.25
2023-04-17T07:25:44.124Z,24.75
2023-04-17T07:31:46.575Z,28.50
2023-04-17T07:37:49.773Z,28.25
2023-04-17T07:43:52.194Z,20.50
2023-04-17T07:49:54.488Z,20.50
2023-04-17T07:55:57.056Z,19.00
2023-04-17T08:02:00.154Z,26.25
2023-04-17T08:08:02.827Z,18.50
2023-04-17T08:14:06.482Z,24.50
2023-04-17T08:20:13.781Z,25.00
2023-04-17T08:26:19.362Z,24.50
2023-04-17T08:32:22.027Z,34.75
2023-04-17T08:38:27.510Z,45.00
2023-04-17T08:44:29.853Z,34.75
2023-04-17T08:50:32.976Z,38.00
2023-04-17T08:56:36.620Z,32.50
2023-04-17T09:02:56.663Z,37.50
2023-04-17T09:09:05.190Z,38.00
2023-04-17T09:15:17.574Z,42.00
2023-04-17T09:21:20.492Z,34.50
2023-04-17T09:27:25.177Z,34.25
2023-04-17T09:33:27.667Z,37.75
2023-04-17T09:39:29.869Z,42.00
2023-04-17T09:45:37.123Z,45.50
2023-04-17T09:51:40.120Z,33.50
2023-04-17T09:57:44.645Z,41.75
2023-04-17T10:03:47.728Z,30.50
2023-04-17T10:09:52.092Z,33.75
2023-04-17T10:15:54.404Z,38.00
2023-04-17T10:22:20.911Z,57.25
2023-04-17T10:28:50.314Z,48.75
2023-04-17T10:35:01.185Z,48.00
2023-04-17T10:41:09.710Z,40.75
2023-04-17T10:47:14.659Z,0.00
2023-04-17T10:53:39.418Z,0.00
2023-04-17T10:59:45.343Z,0.00
2023-04-17T11:05:48.449Z,0.00
2023-04-17T11:11:51.378Z,0.00
2023-04-17T11:17:56.496Z,0.00
2023-04-17T11:24:03.483Z,0.00
2023-04-17T11:30:06.586Z,0.00
2023-04-17T11:36:09.167Z,0.00
2023-04-17T11:42:11.877Z,0.00
2023-04-17T11:48:16.586Z,0.00
2023-04-17T11:54:26.693Z,0.00
2023-04-17T12:00:32.274Z,0.00
2023-04-17T12:06:38.051Z,0.00
2023-04-17T12:12:41.456Z,0.00
2023-04-17T12:18:44.726Z,0.00
2023-04-17T12:24:46.937Z,0.00
2023-04-17T12:30:49.284Z,0.00
2023-04-17T12:36:51.567Z,0.00
2023-04-17T12:42:54.218Z,0.00
2023-04-17T12:48:58.941Z,0.00
2023-04-17T12:55:01.508Z,0.00
2023-04-17T13:01:04.551Z,0.00
2023-04-17T13:07:08.688Z,0.00
2023-04-17T13:13:11.894Z,0.00
2023-04-17T13:19:15.470Z,0.00
2023-04-17T13:25:18.011Z,0.00
2023-04-17T13:31:20.330Z,33.50
2023-04-17T13:37:22.610Z,34.50
2023-04-17T13:43:24.855Z,39.75
2023-04-17T13:49:28.050Z,36.00
2023-04-17T13:55:30.251Z,34.25
2023-04-17T14:01:32.949Z,25.50
2023-04-17T14:07:36.367Z,29.75
2023-04-17T14:13:38.757Z,25.00
2023-04-17T14:19:40.986Z,31.75
2023-04-17T14:25:43.260Z,25.00
2023-04-17T14:31:46.486Z,33.25
2023-04-17T14:37:48.699Z,31.75
2023-04-17T14:43:50.918Z,28.50
2023-04-17T14:49:53.592Z,34.50
2023-04-17T14:55:55.845Z,30.75
2023-04-17T15:01:58.303Z,36.75
2023-04-17T15:08:00.550Z,34.75
2023-04-17T15:14:02.976Z,29.25
2023-04-17T15:20:06.345Z,34.00
2023-04-17T15:26:09.445Z,20.75
2023-04-17T15:32:13.267Z,26.75
2023-04-17T15:38:15.490Z,29.25
2023-04-17T15:44:17.914Z,30.50
2023-04-17T15:50:21.416Z,19.33
2023-04-17T15:56:23.971Z,29.50
2023-04-17T16:02:26.348Z,28.00
2023-04-17T16:08:28.710Z,31.50
2023-04-17T16:14:31.068Z,34.75
2023-04-17T16:20:33.350Z,28.75
2023-04-17T16:26:37.083Z,33.75
2023-04-17T16:32:39.488Z,32.33
2023-04-17T16:38:42.622Z,28.75
2023-04-17T16:44:48.278Z,26.00
2023-04-17T16:50:50.890Z,32.25
2023-04-17T16:56:56.112Z,34.75
2023-04-17T17:02:58.551Z,35.00
2023-04-17T17:09:01.114Z,34.00
2023-04-17T17:15:04.013Z,35.00
2023-04-17T17:21:07.463Z,36.75
2023-04-17T17:27:09.684Z,28.75
2023-04-17T17:33:12.370Z,24.50
2023-04-17T17:39:21.466Z,32.00
2023-04-17T17:45:23.661Z,22.75
2023-04-17T17:51:26.160Z,41.25
2023-04-17T17:57:38.471Z,36.25
2023-04-17T18:03:49.729Z,37.75
2023-04-17T18:09:52.496Z,28.50
2023-04-17T18:15:55.370Z,30.75
2023-04-17T18:21:58.361Z,31.75
2023-04-17T18:28:03.017Z,27.00
2023-04-17T18:34:05.636Z,41.50
2023-04-17T18:40:10.709Z,30.00
2023-04-17T18:46:12.992Z,40.75
2023-04-17T18:52:15.506Z,30.00
2023-04-17T18:58:17.652Z,33.50
2023-04-17T19:04:20.098Z,24.50
2023-04-17T19:10:22.440Z,27.50
2023-04-17T19:16:24.757Z,18.25
2023-04-17T19:22:26.994Z,28.50
2023-04-17T19:28:29.257Z,25.25
2023-04-17T19:34:31.577Z,23.50
2023-04-17T19:40:33.930Z,16.00
2023-04-17T19:46:36.832Z,25.50
2023-04-17T19:52:40.203Z,17.00
2023-04-17T19:58:43.499Z,20.50
2023-04-17T20:04:47.010Z,21.75
2023-04-17T20:10:49.290Z,22.75
2023-04-17T20:16:51.629Z,20.25
2023-04-17T20:22:53.977Z,21.00
2023-04-17T20:28:56.230Z,17.00
2023-04-17T20:34:58.671Z,18.75
2023-04-17T20:41:01.174Z,19.75
2023-04-17T20:47:04.141Z,18.50
2023-04-17T20:53:06.379Z,21.00
2023-04-17T20:59:08.669Z,22.75
2023-04-17T21:05:10.922Z,20.25
2023-04-17T21:11:13.493Z,21.00
2023-04-17T21:17:15.766Z,17.00
2023-04-17T21:23:19.426Z,22.50
2023-04-17T21:29:21.887Z,21.25
2023-04-17T21:35:24.482Z,19.50
2023-04-17T21:41:26.963Z,21.25
2023-04-17T21:47:29.284Z,23.50
2023-04-17T21:53:38.134Z,22.00
2023-04-17T21:59:40.655Z,22.50
2023-04-17T22:05:42.877Z,18.00
2023-04-17T22:11:45.969Z,24.25
2023-04-17T22:17:48.301Z,21.00
2023-04-17T22:24:09.469Z,30.25
2023-04-17T22:30:48.847Z,27.00
2023-04-17T22:37:09.834Z,24.75
2023-04-17T22:43:30.567Z,22.25
2023-04-17T22:49:38.353Z,28.25
2023-04-17T22:55:41.228Z,26.00
2023-04-17T23:01:43.444Z,24.00
2023-04-17T23:07:45.733Z,25.75
2023-04-17T23:13:47.980Z,21.75
2023-04-17T23:19:50.290Z,27.75
2023-04-17T23:25:52.538Z,20.00
2023-04-17T23:31:55.698Z,27.00
2023-04-17T23:37:58.024Z,26.00
2023-04-17T23:44:00.768Z,32.50
2023-04-17T23:50:03.818Z,29.25
2023-04-17T23:56:06.281Z,23.25
